createdAt,value
2022-12-16T00:01:10.972Z,55.70
2022-12-16T00:03:38.792Z,57.10
2022-12-16T00:06:07.289Z,57.20
2022-12-16T00:08:38.158Z,56.70
2022-12-16T00:11:05.747Z,56.30
2022-12-16T00:13:35.259Z,56.10
2022-12-16T00:16:07.989Z,56.00
2022-12-16T00:18:35.489Z,55.90
2022-12-16T00:21:02.916Z,55.90
2022-12-16T00:23:31.303Z,56.00
2022-12-16T00:25:59.126Z,56.00
2022-12-16T00:28:26.183Z,56.10
2022-12-16T00:30:55.099Z,56.10
2022-12-16T00:33:24.231Z,56.10
2022-12-16T00:35:52.131Z,56.20
2022-12-16T00:38:21.132Z,56.40
2022-12-16T00:40:47.870Z,56.40
2022-12-16T00:43:14.675Z,56.50
2022-12-16T00:45:41.504Z,56.50
2022-12-16T00:48:08.792Z,56.50
2022-12-16T00:50:36.475Z,56.40
2022-12-16T00:53:04.377Z,56.30
2022-12-16T00:55:32.454Z,56.30
2022-12-16T00:57:59.418Z,56.30
2022-12-16T01:00:26.266Z,56.30
2022-12-16T01:02:53.561Z,56.10
2022-12-16T01:05:27.455Z,56.20
2022-12-16T01:07:55.586Z,56.20
2022-12-16T01:10:24.203Z,56.20
2022-12-16T01:12:51.326Z,56.20
2022-12-16T01:15:19.165Z,56.10
2022-12-16T01:17:46.389Z,56.10
2022-12-16T01:20:14.166Z,56.00
2022-12-16T01:22:41.561Z,56.20
2022-12-16T01:25:10.019Z,56.20
2022-12-16T01:27:36.817Z,55.90
2022-12-16T01:30:03.925Z,55.70
2022-12-16T01:32:30.658Z,55.40
2022-12-16T01:34:57.786Z,55.20
2022-12-16T01:37:24.945Z,55.00
2022-12-16T01:39:52.233Z,54.80
2022-12-16T01:42:21.578Z,54.70
2022-12-16T01:44:52.283Z,54.60
2022-12-16T01:47:28.050Z,54.60
2022-12-16T01:50:09.867Z,54.50
2022-12-16T01:52:41.379Z,54.40
2022-12-16T01:55:12.822Z,54.20
2022-12-16T01:57:55.189Z,54.10
2022-12-16T02:00:22.631Z,53.90
2022-12-16T02:02:53.320Z,53.90
2022-12-16T02:05:20.666Z,53.80
2022-12-16T02:08:02.525Z,53.70
2022-12-16T02:11:15.658Z,53.70
2022-12-16T02:13:57.560Z,53.70
2022-12-16T02:16:36.704Z,53.70
2022-12-16T02:19:41.858Z,53.90
2022-12-16T02:22:42.768Z,53.80
2022-12-16T02:25:33.520Z,53.60
2022-12-16T02:28:18.909Z,53.50
2022-12-16T02:31:23.523Z,53.80
2022-12-16T02:34:25.616Z,53.80
2022-12-16T02:37:10.102Z,54.70
2022-12-16T02:39:49.187Z,54.00
2022-12-16T02:42:46.087Z,54.00
2022-12-16T02:45:34.322Z,54.00
2022-12-16T02:48:01.099Z,53.90
2022-12-16T02:50:39.845Z,53.80
2022-12-16T02:53:09.378Z,53.80
2022-12-16T02:56:03.537Z,53.60
2022-12-16T02:58:43.420Z,53.70
2022-12-16T03:01:17.134Z,53.60
2022-12-16T03:03:50.374Z,53.60
2022-12-16T03:06:19.431Z,53.50
2022-12-16T03:08:52.265Z,53.50
2022-12-16T03:11:19.205Z,53.50
2022-12-16T03:13:50.820Z,53.50
2022-12-16T03:16:21.335Z,53.60
2022-12-16T03:18:52.726Z,53.70
2022-12-16T03:21:24.643Z,53.80
2022-12-16T03:23:58.906Z,53.80
2022-12-16T03:26:32.836Z,53.90
2022-12-16T03:29:05.963Z,54.20
2022-12-16T03:31:47.156Z,54.40
2022-12-16T03:34:32.409Z,54.40
2022-12-16T03:37:07.359Z,54.50
2022-12-16T03:39:47.474Z,54.70
2022-12-16T03:42:15.581Z,54.80
2022-12-16T03:44:46.534Z,55.00
2022-12-16T03:47:18.295Z,55.10
2022-12-16T03:49:48.617Z,56.10
2022-12-16T03:52:15.453Z,55.50
2022-12-16T03:54:42.214Z,55.60
2022-12-16T03:57:14.751Z,55.70
2022-12-16T03:59:42.788Z,55.90
2022-12-16T04:02:09.645Z,55.90
2022-12-16T04:04:36.854Z,56.10
2022-12-16T04:07:21.639Z,56.10
2022-12-16T04:09:49.169Z,56.20
2022-12-16T04:12:34.931Z,56.30
2022-12-16T04:15:20.449Z,56.20
2022-12-16T04:18:05.606Z,56.20
2022-12-16T04:20:55.362Z,56.30
2022-12-16T04:23:43.029Z,56.50
2022-12-16T04:26:10.390Z,56.60
2022-12-16T04:28:37.291Z,56.40
2022-12-16T04:31:04.516Z,56.50
2022-12-16T04:33:50.078Z,56.70
2022-12-16T04:36:35.361Z,56.70
2022-12-16T04:39:20.671Z,56.70
2022-12-16T04:42:06.106Z,56.70
2022-12-16T04:44:51.398Z,56.80
2022-12-16T04:47:36.762Z,56.80
2022-12-16T04:50:22.489Z,57.00
2022-12-16T04:53:10.682Z,57.00
2022-12-16T04:56:00.677Z,57.00
2022-12-16T04:58:49.162Z,56.90
2022-12-16T05:01:34.714Z,56.90
2022-12-16T05:04:19.990Z,56.90
2022-12-16T05:07:05.324Z,57.00
2022-12-16T05:09:50.467Z,57.00
2022-12-16T05:12:36.018Z,57.00
2022-12-16T05:15:21.227Z,57.10
2022-12-16T05:18:06.633Z,57.20
2022-12-16T05:20:51.841Z,57.30
2022-12-16T05:23:37.018Z,57.50
2022-12-16T05:26:22.541Z,57.60
2022-12-16T05:29:07.994Z,57.90
2022-12-16T05:31:53.443Z,58.10
2022-12-16T05:34:38.913Z,58.20
2022-12-16T05:37:24.257Z,58.30
2022-12-16T05:40:09.652Z,58.50
2022-12-16T05:42:55.128Z,58.70
2022-12-16T05:45:40.457Z,58.80
2022-12-16T05:48:30.399Z,59.00
2022-12-16T05:51:15.419Z,59.10
2022-12-16T05:54:00.903Z,59.00
2022-12-16T05:56:46.212Z,59.20
2022-12-16T05:59:31.420Z,59.10
2022-12-16T06:02:16.583Z,59.20
2022-12-16T06:05:02.191Z,59.20
2022-12-16T06:07:47.458Z,59.40
2022-12-16T06:10:32.949Z,59.30
2022-12-16T06:13:18.441Z,59.30
2022-12-16T06:16:08.570Z,59.30
2022-12-16T06:18:54.515Z,59.20
2022-12-16T06:21:40.029Z,59.30
2022-12-16T06:24:25.290Z,59.10
2022-12-16T06:27:10.854Z,59.10
2022-12-16T06:29:56.337Z,59.10
2022-12-16T06:32:41.351Z,59.10
2022-12-16T06:35:27.331Z,59.10
2022-12-16T06:38:12.824Z,59.10
2022-12-16T06:40:58.378Z,59.10
2022-12-16T06:44:03.656Z,58.80
2022-12-16T06:46:48.923Z,58.90
2022-12-16T06:49:34.177Z,59.00
2022-12-16T06:52:19.847Z,59.00
2022-12-16T06:55:04.978Z,59.00
2022-12-16T06:57:50.325Z,58.80
2022-12-16T07:00:36.005Z,58.90
2022-12-16T07:03:21.425Z,58.90
2022-12-16T07:06:10.926Z,58.90
2022-12-16T07:08:56.330Z,58.90
2022-12-16T07:11:42.223Z,58.90
2022-12-16T07:14:27.654Z,59.00
2022-12-16T07:17:17.041Z,59.00
2022-12-16T07:20:02.884Z,59.00
2022-12-16T07:22:51.158Z,59.00
2022-12-16T07:25:43.766Z,58.90
2022-12-16T07:28:28.792Z,59.00
2022-12-16T07:31:14.482Z,59.10
2022-12-16T07:33:59.720Z,59.00
2022-12-16T07:36:44.905Z,59.00
2022-12-16T07:39:30.300Z,58.90
2022-12-16T07:42:15.556Z,58.90
2022-12-16T07:45:00.904Z,58.90
2022-12-16T07:47:46.503Z,58.90
2022-12-16T07:50:31.842Z,58.90
2022-12-16T07:53:18.452Z,58.80
2022-12-16T07:56:04.641Z,58.70
2022-12-16T07:58:50.377Z,58.70
2022-12-16T08:01:35.826Z,58.70
2022-12-16T08:04:21.160Z,58.60
2022-12-16T08:07:06.386Z,58.50
2022-12-16T08:09:51.530Z,58.50
2022-12-16T08:12:36.862Z,58.40
2022-12-16T08:15:22.852Z,58.30
2022-12-16T08:18:20.046Z,58.30
2022-12-16T08:21:05.206Z,58.40
2022-12-16T08:23:50.947Z,58.30
2022-12-16T08:26:36.486Z,58.30
2022-12-16T08:29:43.005Z,58.20
2022-12-16T08:32:27.225Z,58.10
2022-12-16T08:35:13.020Z,58.10
2022-12-16T08:37:58.301Z,58.00
2022-12-16T08:40:44.062Z,58.00
2022-12-16T08:43:29.299Z,57.90
2022-12-16T08:46:14.924Z,57.90
2022-12-16T08:49:00.581Z,57.90
2022-12-16T08:51:46.353Z,57.60
2022-12-16T08:54:31.680Z,57.40
2022-12-16T08:57:17.290Z,57.20
2022-12-16T09:00:02.672Z,57.30
2022-12-16T09:02:48.372Z,57.40
2022-12-16T09:05:33.693Z,57.40
2022-12-16T09:08:20.555Z,57.50
2022-12-16T09:11:06.121Z,57.30
2022-12-16T09:13:51.746Z,57.30
2022-12-16T09:16:37.083Z,57.00
2022-12-16T09:19:22.400Z,56.50
2022-12-16T09:22:07.693Z,56.40
2022-12-16T09:24:54.171Z,56.60
2022-12-16T09:27:41.469Z,56.80
2022-12-16T09:30:27.725Z,57.70
2022-12-16T09:33:13.072Z,57.00
2022-12-16T09:35:58.530Z,57.30
2022-12-16T09:38:43.874Z,57.10
2022-12-16T09:41:49.369Z,56.80
2022-12-16T09:44:59.326Z,56.60
2022-12-16T09:47:55.214Z,56.40
2022-12-16T09:50:44.087Z,56.50
2022-12-16T09:53:38.558Z,56.00
2022-12-16T09:56:28.829Z,55.60
2022-12-16T09:59:19.549Z,55.70
2022-12-16T10:02:05.619Z,56.00
2022-12-16T10:04:51.753Z,56.30
2022-12-16T10:07:39.520Z,56.30
2022-12-16T10:10:41.303Z,56.30
2022-12-16T10:13:35.997Z,56.00
2022-12-16T10:16:43.874Z,55.60
2022-12-16T10:19:35.634Z,55.60
2022-12-16T10:22:56.222Z,55.90
2022-12-16T10:25:53.803Z,56.20
2022-12-16T10:29:00.722Z,55.90
2022-12-16T10:31:46.624Z,55.50
2022-12-16T10:34:39.415Z,55.50
2022-12-16T10:37:24.878Z,55.50
2022-12-16T10:40:16.040Z,55.40
2022-12-16T10:43:11.237Z,55.10
2022-12-16T10:46:04.412Z,54.30
2022-12-16T10:48:56.645Z,53.30
2022-12-16T10:51:46.455Z,52.60
2022-12-16T10:54:55.444Z,52.60
2022-12-16T10:57:55.184Z,52.50
2022-12-16T11:01:04.041Z,52.20
2022-12-16T11:03:58.262Z,51.70
2022-12-16T11:06:58.106Z,51.50
2022-12-16T11:09:47.399Z,51.40
2022-12-16T11:12:49.018Z,51.20
2022-12-16T11:15:49.789Z,51.00
2022-12-16T11:18:38.090Z,51.00
2022-12-16T11:21:35.948Z,50.80
2022-12-16T11:24:30.766Z,50.70
2022-12-16T11:27:19.016Z,50.70
2022-12-16T11:30:09.346Z,50.30
2022-12-16T11:32:56.943Z,50.60
2022-12-16T11:35:46.958Z,50.90
2022-12-16T11:38:46.215Z,51.10
2022-12-16T11:41:43.326Z,51.50
2022-12-16T11:44:36.814Z,51.40
2022-12-16T11:47:27.626Z,51.50
2022-12-16T11:50:15.460Z,51.60
2022-12-16T11:53:04.446Z,51.60
2022-12-16T11:56:06.641Z,51.60
2022-12-16T11:59:05.746Z,51.70
2022-12-16T12:02:00.160Z,51.80
2022-12-16T12:04:45.450Z,51.90
2022-12-16T12:07:51.400Z,51.80
2022-12-16T12:11:03.234Z,51.70
2022-12-16T12:14:14.461Z,52.50
2022-12-16T12:17:08.910Z,51.60
2022-12-16T12:20:19.076Z,51.50
2022-12-16T12:23:05.445Z,51.40
2022-12-16T12:25:57.089Z,51.20
2022-12-16T12:28:59.590Z,51.20
2022-12-16T12:32:28.405Z,51.00
2022-12-16T12:35:42.916Z,50.80
2022-12-16T12:38:48.050Z,50.80
2022-12-16T12:42:05.698Z,50.80
2022-12-16T12:45:10.138Z,50.80
2022-12-16T12:48:02.437Z,50.70
2022-12-16T12:51:17.505Z,50.80
2022-12-16T12:54:16.318Z,50.90
2022-12-16T12:57:11.104Z,50.80
2022-12-16T13:00:06.290Z,50.80
2022-12-16T13:03:35.128Z,51.10
2022-12-16T13:06:21.649Z,51.10
2022-12-16T13:09:10.059Z,51.20
2022-12-16T13:11:56.277Z,51.40
2022-12-16T13:15:05.456Z,51.50
2022-12-16T13:18:20.119Z,51.70
2022-12-16T13:21:16.990Z,51.70
2022-12-16T13:24:03.879Z,51.70
2022-12-16T13:26:51.943Z,51.60
2022-12-16T13:29:49.391Z,51.60
2022-12-16T13:32:40.685Z,51.60
2022-12-16T13:35:28.940Z,51.50
2022-12-16T13:38:21.697Z,51.60
2022-12-16T13:41:12.383Z,51.70
2022-12-16T13:44:06.806Z,52.00
2022-12-16T13:47:06.099Z,52.00
2022-12-16T13:49:54.345Z,51.90
2022-12-16T13:53:02.586Z,51.90
2022-12-16T13:55:58.974Z,52.00
2022-12-16T13:59:03.841Z,52.00
2022-12-16T14:02:12.379Z,52.00
2022-12-16T14:05:07.264Z,52.00
2022-12-16T14:07:56.448Z,52.20
2022-12-16T14:10:48.191Z,52.20
2022-12-16T14:13:46.948Z,52.30
2022-12-16T14:16:35.340Z,52.40
2022-12-16T14:19:43.811Z,52.50
2022-12-16T14:22:44.910Z,52.70
2022-12-16T14:25:38.613Z,52.90
2022-12-16T14:28:41.559Z,52.90
2022-12-16T14:31:40.092Z,52.90
2022-12-16T14:34:52.766Z,53.00
2022-12-16T14:37:41.143Z,53.10
2022-12-16T14:40:42.244Z,53.10
2022-12-16T14:43:33.912Z,53.20
2022-12-16T14:46:19.973Z,53.40
2022-12-16T14:49:06.751Z,53.70
2022-12-16T14:51:54.330Z,53.90
2022-12-16T14:54:58.951Z,54.00
2022-12-16T14:57:46.893Z,54.00
2022-12-16T15:00:37.990Z,54.20
2022-12-16T15:03:28.413Z,54.40
2022-12-16T15:06:15.247Z,54.40
2022-12-16T15:09:11.323Z,54.50
2022-12-16T15:11:58.632Z,54.40
2022-12-16T15:14:50.937Z,54.50
2022-12-16T15:17:43.484Z,54.80
2022-12-16T15:20:48.264Z,55.00
2022-12-16T15:23:43.098Z,55.00
2022-12-16T15:26:46.330Z,55.00
2022-12-16T15:29:56.258Z,55.00
2022-12-16T15:32:53.673Z,54.90
2022-12-16T15:35:44.904Z,54.90
2022-12-16T15:38:34.472Z,55.20
2022-12-16T15:41:21.276Z,55.20
2022-12-16T15:44:07.379Z,55.30
2022-12-16T15:46:53.729Z,55.50
2022-12-16T15:49:48.582Z,55.60
2022-12-16T15:52:49.207Z,55.50
2022-12-16T15:56:04.991Z,55.70
2022-12-16T15:58:51.521Z,55.80
2022-12-16T16:01:44.292Z,55.60
2022-12-16T16:04:49.354Z,55.60
2022-12-16T16:07:40.145Z,55.80
2022-12-16T16:10:43.623Z,55.80
2022-12-16T16:13:29.302Z,55.90
2022-12-16T16:16:14.665Z,55.90
2022-12-16T16:19:01.102Z,56.20
2022-12-16T16:21:47.721Z,56.30
2022-12-16T16:24:33.104Z,56.40
2022-12-16T16:27:20.752Z,56.40
2022-12-16T16:30:06.317Z,56.30
2022-12-16T16:32:51.935Z,56.70
2022-12-16T16:35:37.426Z,56.80
2022-12-16T16:38:22.653Z,56.70
2022-12-16T16:41:08.047Z,56.50
2022-12-16T16:43:53.564Z,56.50
2022-12-16T16:46:39.054Z,56.40
2022-12-16T16:49:29.602Z,56.30
2022-12-16T16:52:14.984Z,56.10
2022-12-16T16:55:00.452Z,55.90
2022-12-16T16:57:52.974Z,55.70
2022-12-16T17:00:38.628Z,55.60
2022-12-16T17:03:28.592Z,55.50
2022-12-16T17:06:14.221Z,55.50
2022-12-16T17:08:59.674Z,55.30
2022-12-16T17:11:46.664Z,55.30
2022-12-16T17:14:35.294Z,55.30
2022-12-16T17:17:20.645Z,55.60
2022-12-16T17:20:05.821Z,55.80
2022-12-16T17:22:51.395Z,55.90
2022-12-16T17:25:36.909Z,55.90
2022-12-16T17:28:23.374Z,55.90
2022-12-16T17:31:09.427Z,55.80
2022-12-16T17:33:54.617Z,55.80
2022-12-16T17:36:40.019Z,55.80
2022-12-16T17:39:25.294Z,55.80
2022-12-16T17:42:10.770Z,55.70
2022-12-16T17:44:56.284Z,55.80
2022-12-16T17:47:42.067Z,55.90
2022-12-16T17:50:27.933Z,55.90
2022-12-16T17:53:15.701Z,55.90
2022-12-16T17:56:01.863Z,55.90
2022-12-16T17:58:55.611Z,55.90
2022-12-16T18:01:42.022Z,55.90
2022-12-16T18:04:28.045Z,56.00
2022-12-16T18:07:13.977Z,56.00
2022-12-16T18:09:59.831Z,56.10
2022-12-16T18:12:45.819Z,56.10
2022-12-16T18:15:31.016Z,56.00
2022-12-16T18:18:16.859Z,56.00
2022-12-16T18:21:02.314Z,56.10
2022-12-16T18:23:50.635Z,56.00
2022-12-16T18:26:36.594Z,56.00
2022-12-16T18:29:22.450Z,56.00
2022-12-16T18:32:08.530Z,56.00
2022-12-16T18:34:54.146Z,55.90
2022-12-16T18:37:39.729Z,55.70
2022-12-16T18:40:26.015Z,55.60
2022-12-16T18:43:11.532Z,55.60
2022-12-16T18:45:56.992Z,55.70
2022-12-16T18:48:42.556Z,55.60
2022-12-16T18:51:27.794Z,55.70
2022-12-16T18:54:13.272Z,55.80
2022-12-16T18:56:58.851Z,55.70
2022-12-16T18:59:44.435Z,56.40
2022-12-16T19:02:30.027Z,55.60
2022-12-16T19:05:15.233Z,55.50
2022-12-16T19:08:00.643Z,55.60
2022-12-16T19:10:46.004Z,55.60
2022-12-16T19:13:34.445Z,55.60
2022-12-16T19:16:19.978Z,55.60
2022-12-16T19:19:05.271Z,55.70
2022-12-16T19:21:52.240Z,55.70
2022-12-16T19:24:56.593Z,55.60
2022-12-16T19:27:42.401Z,55.50
2022-12-16T19:30:28.247Z,55.60
2022-12-16T19:33:13.886Z,55.80
2022-12-16T19:35:59.464Z,55.90
2022-12-16T19:38:44.617Z,56.00
2022-12-16T19:41:34.128Z,56.00
2022-12-16T19:44:19.954Z,55.90
2022-12-16T19:47:05.161Z,55.80
2022-12-16T19:49:50.708Z,55.80
2022-12-16T19:52:37.243Z,55.60
2022-12-16T19:55:22.868Z,55.50
2022-12-16T19:58:08.493Z,55.60
2022-12-16T20:00:54.540Z,55.80
2022-12-16T20:03:42.117Z,55.60
2022-12-16T20:06:28.460Z,57.00
2022-12-16T20:09:15.511Z,56.70
2022-12-16T20:12:02.346Z,56.10
2022-12-16T20:14:48.208Z,55.80
2022-12-16T20:17:33.530Z,55.90
2022-12-16T20:20:18.742Z,55.90
2022-12-16T20:23:04.260Z,56.20
2022-12-16T20:25:52.083Z,56.10
2022-12-16T20:28:37.906Z,55.90
2022-12-16T20:31:23.722Z,55.80
2022-12-16T20:34:16.272Z,55.40
2022-12-16T20:37:01.772Z,55.20
2022-12-16T20:39:56.154Z,55.10
2022-12-16T20:42:43.442Z,55.10
2022-12-16T20:45:33.793Z,55.00
2022-12-16T20:48:19.830Z,55.00
2022-12-16T20:51:13.736Z,55.00
2022-12-16T20:53:59.302Z,55.10
2022-12-16T20:56:45.021Z,55.10
2022-12-16T20:59:30.322Z,55.10
2022-12-16T21:02:23.229Z,55.10
2022-12-16T21:05:09.200Z,55.20
2022-12-16T21:07:54.762Z,55.30
2022-12-16T21:10:42.113Z,55.30
2022-12-16T21:13:30.798Z,55.30
2022-12-16T21:16:17.403Z,55.30
2022-12-16T21:19:02.914Z,55.50
2022-12-16T21:21:48.191Z,56.30
2022-12-16T21:24:33.407Z,56.40
2022-12-16T21:27:18.818Z,56.00
2022-12-16T21:30:04.229Z,55.90
2022-12-16T21:32:49.620Z,55.80
2022-12-16T21:35:35.614Z,55.50
2022-12-16T21:38:21.423Z,55.50
2022-12-16T21:41:10.563Z,55.50
2022-12-16T21:43:56.188Z,55.60
2022-12-16T21:46:41.805Z,55.60
2022-12-16T21:49:46.968Z,55.70
2022-12-16T21:52:32.277Z,55.50
2022-12-16T21:55:17.588Z,55.60
2022-12-16T21:58:02.921Z,55.80
2022-12-16T22:00:49.020Z,55.80
2022-12-16T22:03:35.947Z,55.80
2022-12-16T22:06:21.604Z,55.80
2022-12-16T22:09:06.814Z,55.80
2022-12-16T22:11:52.036Z,55.60
2022-12-16T22:14:37.535Z,55.60
2022-12-16T22:17:22.981Z,55.50
2022-12-16T22:20:08.516Z,55.60
2022-12-16T22:22:54.540Z,55.50
2022-12-16T22:25:41.564Z,55.40
2022-12-16T22:28:26.842Z,55.40
2022-12-16T22:31:15.921Z,55.30
2022-12-16T22:34:02.371Z,55.30
2022-12-16T22:36:47.798Z,55.60
2022-12-16T22:39:33.051Z,55.70
2022-12-16T22:42:18.325Z,56.00
2022-12-16T22:45:03.630Z,56.10
2022-12-16T22:47:54.508Z,56.10
2022-12-16T22:50:41.375Z,55.90
2022-12-16T22:53:26.998Z,55.80
2022-12-16T22:56:13.402Z,55.90
2022-12-16T22:59:01.293Z,56.10
2022-12-16T23:01:46.563Z,56.00
2022-12-16T23:04:32.077Z,55.90
2022-12-16T23:07:17.613Z,55.80
2022-12-16T23:10:02.639Z,55.70
2022-12-16T23:12:48.359Z,55.80
2022-12-16T23:15:33.935Z,55.80
2022-12-16T23:18:19.809Z,55.90
2022-12-16T23:21:06.732Z,55.90
2022-12-16T23:23:52.547Z,56.20
2022-12-16T23:26:38.765Z,56.10
2022-12-16T23:29:25.019Z,56.20
2022-12-16T23:32:10.698Z,56.40
2022-12-16T23:34:56.223Z,56.30
2022-12-16T23:37:41.369Z,56.40
2022-12-16T23:40:27.061Z,56.40
2022-12-16T23:43:15.577Z,56.40
2022-12-16T23:46:02.140Z,56.20
2022-12-16T23:48:47.516Z,56.00
2022-12-16T23:51:33.244Z,55.90
2022-12-16T23:54:18.457Z,55.90
2022-12-16T23:57:03.673Z,55.70
2022-12-16T23:59:49.140Z,55.60
